sensor_id;sensor_type;location;lat;lon;timestamp;P1;durP1;ratioP1;P2;durP2;ratioP2
49472;SDS011;67434;50.956;6.918;2023-03-05T00:02:09;4.95;;;1.30;;
49472;SDS011;67434;50.956;6.918;2023-03-05T00:04:34;3.80;;;1.33;;
49472;SDS011;67434;50.956;6.918;2023-03-05T00:07:00;6.57;;;1.10;;
49472;SDS011;67434;50.956;6.918;2023-03-05T00:09:25;12.38;;;1.73;;
49472;SDS011;67434;50.956;6.918;2023-03-05T00:11:51;6.78;;;1.10;;
49472;SDS011;67434;50.956;6.918;2023-03-05T00:14:16;5.50;;;1.25;;
49472;SDS011;67434;50.956;6.918;2023-03-05T00:16:41;5.07;;;1.25;;
49472;SDS011;67434;50.956;6.918;2023-03-05T00:19:07;3.72;;;1.02;;
49472;SDS011;67434;50.956;6.918;2023-03-05T00:21:34;12.40;;;1.95;;
49472;SDS011;67434;50.956;6.918;2023-03-05T00:24:03;6.32;;;1.27;;
49472;SDS011;67434;50.956;6.918;2023-03-05T00:26:33;7.72;;;1.45;;
49472;SDS011;67434;50.956;6.918;2023-03-05T00:29:01;9.45;;;1.08;;
49472;SDS011;67434;50.956;6.918;2023-03-05T00:31:27;7.72;;;1.38;;
49472;SDS011;67434;50.956;6.918;2023-03-05T00:33:58;4.13;;;1.45;;
49472;SDS011;67434;50.956;6.918;2023-03-05T00:36:29;12.15;;;2.35;;
49472;SDS011;67434;50.956;6.918;2023-03-05T00:38:54;6.47;;;1.88;;
49472;SDS011;67434;50.956;6.918;2023-03-05T00:41:20;6.22;;;1.50;;
49472;SDS011;67434;50.956;6.918;2023-03-05T00:43:47;5.20;;;0.98;;
49472;SDS011;67434;50.956;6.918;2023-03-05T00:46:12;11.25;;;1.25;;
49472;SDS011;67434;50.956;6.918;2023-03-05T00:48:38;7.18;;;2.17;;
49472;SDS011;67434;50.956;6.918;2023-03-05T00:51:03;4.88;;;1.10;;
49472;SDS011;67434;50.956;6.918;2023-03-05T00:53:29;8.85;;;1.50;;
49472;SDS011;67434;50.956;6.918;2023-03-05T00:55:54;6.60;;;0.90;;
49472;SDS011;67434;50.956;6.918;2023-03-05T00:58:20;6.38;;;1.50;;
49472;SDS011;67434;50.956;6.918;2023-03-05T01:00:45;8.15;;;1.70;;
49472;SDS011;67434;50.956;6.918;2023-03-05T01:03:14;6.82;;;1.15;;
49472;SDS011;67434;50.956;6.918;2023-03-05T01:05:40;4.22;;;1.17;;
49472;SDS011;67434;50.956;6.918;2023-03-05T01:08:06;9.20;;;1.08;;
49472;SDS011;67434;50.956;6.918;2023-03-05T01:10:32;4.93;;;1.08;;
49472;SDS011;67434;50.956;6.918;2023-03-05T01:12:58;6.82;;;1.60;;
49472;SDS011;67434;50.956;6.918;2023-03-05T01:15:23;4.70;;;1.17;;
49472;SDS011;67434;50.956;6.918;2023-03-05T01:17:49;7.05;;;1.13;;
49472;SDS011;67434;50.956;6.918;2023-03-05T01:20:15;6.85;;;1.33;;
49472;SDS011;67434;50.956;6.918;2023-03-05T01:22:44;9.15;;;1.08;;
49472;SDS011;67434;50.956;6.918;2023-03-05T01:25:10;5.63;;;1.23;;
49472;SDS011;67434;50.956;6.918;2023-03-05T01:27:37;4.68;;;0.98;;
49472;SDS011;67434;50.956;6.918;2023-03-05T01:30:03;8.50;;;0.70;;
49472;SDS011;67434;50.956;6.918;2023-03-05T01:32:29;5.47;;;0.93;;
49472;SDS011;67434;50.956;6.918;2023-03-05T01:34:54;3.65;;;0.82;;
49472;SDS011;67434;50.956;6.918;2023-03-05T01:37:19;7.85;;;0.90;;
49472;SDS011;67434;50.956;6.918;2023-03-05T01:39:45;6.75;;;1.38;;
49472;SDS011;67434;50.956;6.918;2023-03-05T01:42:10;6.53;;;0.90;;
49472;SDS011;67434;50.956;6.918;2023-03-05T01:44:36;7.72;;;0.65;;
49472;SDS011;67434;50.956;6.918;2023-03-05T01:47:01;3.13;;;0.70;;
49472;SDS011;67434;50.956;6.918;2023-03-05T01:49:29;5.13;;;0.65;;
49472;SDS011;67434;50.956;6.918;2023-03-05T01:54:37;2.70;;;0.93;;
49472;SDS011;67434;50.956;6.918;2023-03-05T01:57:08;6.20;;;1.73;;
49472;SDS011;67434;50.956;6.918;2023-03-05T01:59:37;8.30;;;1.75;;
49472;SDS011;67434;50.956;6.918;2023-03-05T02:02:04;5.57;;;0.88;;
49472;SDS011;67434;50.956;6.918;2023-03-05T02:04:35;4.95;;;1.15;;
49472;SDS011;67434;50.956;6.918;2023-03-05T02:07:05;9.52;;;1.30;;
49472;SDS011;67434;50.956;6.918;2023-03-05T02:09:31;4.40;;;0.75;;
49472;SDS011;67434;50.956;6.918;2023-03-05T02:11:57;4.28;;;0.70;;
49472;SDS011;67434;50.956;6.918;2023-03-05T02:14:22;7.80;;;0.90;;
49472;SDS011;67434;50.956;6.918;2023-03-05T02:16:50;4.57;;;1.48;;
49472;SDS011;67434;50.956;6.918;2023-03-05T02:19:15;8.05;;;2.38;;
49472;SDS011;67434;50.956;6.918;2023-03-05T02:21:42;6.25;;;1.25;;
49472;SDS011;67434;50.956;6.918;2023-03-05T02:24:16;6.82;;;1.10;;
49472;SDS011;67434;50.956;6.918;2023-03-05T02:26:55;1.58;;;0.65;;
49472;SDS011;67434;50.956;6.918;2023-03-05T02:29:21;6.60;;;1.10;;
49472;SDS011;67434;50.956;6.918;2023-03-05T02:31:48;3.67;;;0.73;;
49472;SDS011;67434;50.956;6.918;2023-03-05T02:34:13;9.45;;;1.40;;
49472;SDS011;67434;50.956;6.918;2023-03-05T02:36:39;6.82;;;1.25;;
49472;SDS011;67434;50.956;6.918;2023-03-05T02:39:04;8.65;;;3.20;;
49472;SDS011;67434;50.956;6.918;2023-03-05T02:41:33;5.40;;;1.00;;
49472;SDS011;67434;50.956;6.918;2023-03-05T02:43:59;5.50;;;0.90;;
49472;SDS011;67434;50.956;6.918;2023-03-05T02:46:24;5.63;;;0.80;;
49472;SDS011;67434;50.956;6.918;2023-03-05T02:48:49;8.45;;;0.70;;
49472;SDS011;67434;50.956;6.918;2023-03-05T02:51:15;4.40;;;0.80;;
49472;SDS011;67434;50.956;6.918;2023-03-05T02:53:41;5.68;;;1.33;;
49472;SDS011;67434;50.956;6.918;2023-03-05T02:56:06;4.38;;;0.77;;
49472;SDS011;67434;50.956;6.918;2023-03-05T02:58:31;6.07;;;0.85;;
49472;SDS011;67434;50.956;6.918;2023-03-05T03:00:57;3.88;;;1.08;;
49472;SDS011;67434;50.956;6.918;2023-03-05T03:03:22;5.03;;;0.57;;
49472;SDS011;67434;50.956;6.918;2023-03-05T03:05:47;2.08;;;0.80;;
49472;SDS011;67434;50.956;6.918;2023-03-05T03:08:13;8.88;;;1.17;;
49472;SDS011;67434;50.956;6.918;2023-03-05T03:10:39;4.30;;;1.67;;
49472;SDS011;67434;50.956;6.918;2023-03-05T03:13:04;6.07;;;0.93;;
49472;SDS011;67434;50.956;6.918;2023-03-05T03:15:30;3.55;;;0.73;;
49472;SDS011;67434;50.956;6.918;2023-03-05T03:17:55;5.28;;;0.90;;
49472;SDS011;67434;50.956;6.918;2023-03-05T03:20:21;5.72;;;1.15;;
49472;SDS011;67434;50.956;6.918;2023-03-05T03:22:46;3.67;;;0.70;;
49472;SDS011;67434;50.956;6.918;2023-03-05T03:25:16;3.95;;;0.93;;
49472;SDS011;67434;50.956;6.918;2023-03-05T03:27:43;2.85;;;0.60;;
49472;SDS011;67434;50.956;6.918;2023-03-05T03:30:10;7.07;;;0.90;;
49472;SDS011;67434;50.956;6.918;2023-03-05T03:32:37;7.15;;;1.15;;
49472;SDS011;67434;50.956;6.918;2023-03-05T03:35:02;2.65;;;0.80;;
49472;SDS011;67434;50.956;6.918;2023-03-05T03:37:28;6.00;;;1.00;;
49472;SDS011;67434;50.956;6.918;2023-03-05T03:39:54;4.47;;;0.77;;
49472;SDS011;67434;50.956;6.918;2023-03-05T03:42:20;9.05;;;1.60;;
49472;SDS011;67434;50.956;6.918;2023-03-05T03:44:46;3.78;;;0.68;;
49472;SDS011;67434;50.956;6.918;2023-03-05T03:47:12;4.28;;;0.80;;
49472;SDS011;67434;50.956;6.918;2023-03-05T03:49:37;1.85;;;0.88;;
49472;SDS011;67434;50.956;6.918;2023-03-05T03:52:03;4.88;;;0.80;;
49472;SDS011;67434;50.956;6.918;2023-03-05T03:54:28;2.72;;;0.90;;
49472;SDS011;67434;50.956;6.918;2023-03-05T03:56:54;6.65;;;0.73;;
49472;SDS011;67434;50.956;6.918;2023-03-05T03:59:19;9.32;;;1.00;;
49472;SDS011;67434;50.956;6.918;2023-03-05T04:01:45;9.77;;;0.80;;
49472;SDS011;67434;50.956;6.918;2023-03-05T04:04:11;3.92;;;0.80;;
49472;SDS011;67434;50.956;6.918;2023-03-05T04:06:37;2.60;;;0.77;;
49472;SDS011;67434;50.956;6.918;2023-03-05T04:09:03;1.75;;;0.73;;
49472;SDS011;67434;50.956;6.918;2023-03-05T04:11:29;4.85;;;0.80;;
49472;SDS011;67434;50.956;6.918;2023-03-05T04:13:54;4.35;;;0.80;;
49472;SDS011;67434;50.956;6.918;2023-03-05T04:16:20;1.63;;;0.60;;
49472;SDS011;67434;50.956;6.918;2023-03-05T04:18:45;2.75;;;0.80;;
49472;SDS011;67434;50.956;6.918;2023-03-05T04:21:11;3.55;;;1.10;;
49472;SDS011;67434;50.956;6.918;2023-03-05T04:23:38;5.30;;;0.80;;
49472;SDS011;67434;50.956;6.918;2023-03-05T04:26:04;3.92;;;0.90;;
49472;SDS011;67434;50.956;6.918;2023-03-05T04:28:30;5.95;;;1.27;;
49472;SDS011;67434;50.956;6.918;2023-03-05T04:30:55;3.45;;;0.75;;
49472;SDS011;67434;50.956;6.918;2023-03-05T04:33:21;5.95;;;0.90;;
49472;SDS011;67434;50.956;6.918;2023-03-05T04:35:48;3.95;;;1.20;;
49472;SDS011;67434;50.956;6.918;2023-03-05T04:38:13;2.35;;;0.52;;
49472;SDS011;67434;50.956;6.918;2023-03-05T04:40:38;8.57;;;0.93;;
49472;SDS011;67434;50.956;6.918;2023-03-05T04:43:04;6.13;;;1.20;;
49472;SDS011;67434;50.956;6.918;2023-03-05T04:45:30;5.10;;;1.10;;
49472;SDS011;67434;50.956;6.918;2023-03-05T04:47:56;7.72;;;0.95;;
49472;SDS011;67434;50.956;6.918;2023-03-05T04:50:22;3.90;;;0.80;;
49472;SDS011;67434;50.956;6.918;2023-03-05T04:52:47;3.25;;;0.80;;
49472;SDS011;67434;50.956;6.918;2023-03-05T04:55:13;2.85;;;1.10;;
49472;SDS011;67434;50.956;6.918;2023-03-05T04:57:39;5.05;;;2.38;;
49472;SDS011;67434;50.956;6.918;2023-03-05T05:00:06;4.25;;;0.85;;
49472;SDS011;67434;50.956;6.918;2023-03-05T05:02:38;13.15;;;2.38;;
49472;SDS011;67434;50.956;6.918;2023-03-05T05:05:05;2.22;;;0.38;;
49472;SDS011;67434;50.956;6.918;2023-03-05T05:07:30;6.95;;;0.93;;
49472;SDS011;67434;50.956;6.918;2023-03-05T05:09:56;4.28;;;0.80;;
49472;SDS011;67434;50.956;6.918;2023-03-05T05:12:22;3.88;;;0.65;;
49472;SDS011;67434;50.956;6.918;2023-03-05T05:14:48;4.00;;;0.60;;
49472;SDS011;67434;50.956;6.918;2023-03-05T05:17:13;8.43;;;0.70;;
49472;SDS011;67434;50.956;6.918;2023-03-05T05:19:39;2.90;;;0.90;;
49472;SDS011;67434;50.956;6.918;2023-03-05T05:22:04;9.55;;;1.40;;
49472;SDS011;67434;50.956;6.918;2023-03-05T05:24:29;3.63;;;0.70;;
49472;SDS011;67434;50.956;6.918;2023-03-05T05:26:55;4.95;;;1.90;;
49472;SDS011;67434;50.956;6.918;2023-03-05T05:29:21;3.80;;;1.20;;
49472;SDS011;67434;50.956;6.918;2023-03-05T05:31:46;7.28;;;1.05;;
49472;SDS011;67434;50.956;6.918;2023-03-05T05:34:12;9.15;;;1.17;;
49472;SDS011;67434;50.956;6.918;2023-03-05T05:36:37;4.72;;;0.80;;
49472;SDS011;67434;50.956;6.918;2023-03-05T05:39:03;3.97;;;0.73;;
49472;SDS011;67434;50.956;6.918;2023-03-05T05:41:29;4.57;;;0.93;;
49472;SDS011;67434;50.956;6.918;2023-03-05T05:43:54;6.60;;;1.52;;
49472;SDS011;67434;50.956;6.918;2023-03-05T05:46:20;9.93;;;1.73;;
49472;SDS011;67434;50.956;6.918;2023-03-05T05:48:46;9.65;;;1.50;;
49472;SDS011;67434;50.956;6.918;2023-03-05T05:51:13;6.93;;;1.10;;
49472;SDS011;67434;50.956;6.918;2023-03-05T05:53:41;6.15;;;1.38;;
49472;SDS011;67434;50.956;6.918;2023-03-05T05:56:08;6.93;;;1.50;;
49472;SDS011;67434;50.956;6.918;2023-03-05T05:58:34;7.13;;;1.35;;
49472;SDS011;67434;50.956;6.918;2023-03-05T06:01:01;6.38;;;1.30;;
49472;SDS011;67434;50.956;6.918;2023-03-05T06:03:26;4.53;;;1.73;;
49472;SDS011;67434;50.956;6.918;2023-03-05T06:05:52;5.63;;;0.80;;
49472;SDS011;67434;50.956;6.918;2023-03-05T06:08:18;11.52;;;1.10;;
49472;SDS011;67434;50.956;6.918;2023-03-05T06:10:43;6.30;;;1.88;;
49472;SDS011;67434;50.956;6.918;2023-03-05T06:13:09;3.47;;;0.90;;
49472;SDS011;67434;50.956;6.918;2023-03-05T06:15:34;10.65;;;1.23;;
49472;SDS011;67434;50.956;6.918;2023-03-05T06:17:59;5.43;;;0.93;;
49472;SDS011;67434;50.956;6.918;2023-03-05T06:20:25;9.23;;;1.00;;
49472;SDS011;67434;50.956;6.918;2023-03-05T06:22:51;5.75;;;1.63;;
49472;SDS011;67434;50.956;6.918;2023-03-05T06:25:17;4.32;;;0.77;;
49472;SDS011;67434;50.956;6.918;2023-03-05T06:27:42;5.63;;;1.42;;
49472;SDS011;67434;50.956;6.918;2023-03-05T06:30:08;6.65;;;1.08;;
49472;SDS011;67434;50.956;6.918;2023-03-05T06:32:35;3.15;;;1.08;;
49472;SDS011;67434;50.956;6.918;2023-03-05T06:35:00;5.78;;;1.20;;
49472;SDS011;67434;50.956;6.918;2023-03-05T06:37:41;7.47;;;1.50;;
49472;SDS011;67434;50.956;6.918;2023-03-05T06:40:09;10.52;;;1.80;;
49472;SDS011;67434;50.956;6.918;2023-03-05T06:42:35;6.43;;;1.52;;
49472;SDS011;67434;50.956;6.918;2023-03-05T06:45:00;34.78;;;4.53;;
49472;SDS011;67434;50.956;6.918;2023-03-05T06:47:26;9.23;;;1.58;;
49472;SDS011;67434;50.956;6.918;2023-03-05T06:49:51;12.48;;;1.50;;
49472;SDS011;67434;50.956;6.918;2023-03-05T06:52:16;5.47;;;1.65;;
49472;SDS011;67434;50.956;6.918;2023-03-05T06:54:42;6.90;;;1.63;;
49472;SDS011;67434;50.956;6.918;2023-03-05T06:57:08;6.35;;;1.63;;
49472;SDS011;67434;50.956;6.918;2023-03-05T06:59:34;5.00;;;1.30;;
49472;SDS011;67434;50.956;6.918;2023-03-05T07:01:59;8.60;;;2.28;;
49472;SDS011;67434;50.956;6.918;2023-03-05T07:04:25;9.02;;;1.83;;
49472;SDS011;67434;50.956;6.918;2023-03-05T07:06:50;8.07;;;1.77;;
49472;SDS011;67434;50.956;6.918;2023-03-05T07:09:15;4.30;;;2.28;;
49472;SDS011;67434;50.956;6.918;2023-03-05T07:11:41;16.35;;;3.38;;
49472;SDS011;67434;50.956;6.918;2023-03-05T07:14:06;9.60;;;2.58;;
49472;SDS011;67434;50.956;6.918;2023-03-05T07:16:32;7.25;;;2.15;;
49472;SDS011;67434;50.956;6.918;2023-03-05T07:18:59;10.25;;;2.42;;
49472;SDS011;67434;50.956;6.918;2023-03-05T07:21:30;7.95;;;2.17;;
49472;SDS011;67434;50.956;6.918;2023-03-05T07:23:58;7.70;;;1.92;;
49472;SDS011;67434;50.956;6.918;2023-03-05T07:26:25;6.95;;;2.58;;
49472;SDS011;67434;50.956;6.918;2023-03-05T07:28:51;7.90;;;1.90;;
49472;SDS011;67434;50.956;6.918;2023-03-05T07:31:20;8.82;;;2.00;;
49472;SDS011;67434;50.956;6.918;2023-03-05T07:33:50;8.90;;;2.13;;
49472;SDS011;67434;50.956;6.918;2023-03-05T07:41:27;6.60;;;1.55;;
49472;SDS011;67434;50.956;6.918;2023-03-05T07:43:54;6.10;;;1.75;;
49472;SDS011;67434;50.956;6.918;2023-03-05T07:46:24;9.15;;;1.65;;
49472;SDS011;67434;50.956;6.918;2023-03-05T07:48:52;9.77;;;1.88;;
49472;SDS011;67434;50.956;6.918;2023-03-05T07:51:19;10.35;;;1.50;;
49472;SDS011;67434;50.956;6.918;2023-03-05T07:53:45;9.15;;;1.52;;
49472;SDS011;67434;50.956;6.918;2023-03-05T07:56:12;6.68;;;1.50;;
49472;SDS011;67434;50.956;6.918;2023-03-05T07:58:38;11.07;;;2.58;;
49472;SDS011;67434;50.956;6.918;2023-03-05T08:01:08;4.45;;;1.20;;
49472;SDS011;67434;50.956;6.918;2023-03-05T08:03:36;4.28;;;1.30;;
49472;SDS011;67434;50.956;6.918;2023-03-05T08:06:06;5.07;;;1.45;;
49472;SDS011;67434;50.956;6.918;2023-03-05T08:08:32;9.77;;;2.10;;
49472;SDS011;67434;50.956;6.918;2023-03-05T08:11:05;6.90;;;1.65;;
49472;SDS011;67434;50.956;6.918;2023-03-05T08:13:32;5.60;;;1.40;;
49472;SDS011;67434;50.956;6.918;2023-03-05T08:15:58;6.60;;;1.50;;
49472;SDS011;67434;50.956;6.918;2023-03-05T08:18:23;5.75;;;1.73;;
49472;SDS011;67434;50.956;6.918;2023-03-05T08:20:49;6.13;;;1.58;;
49472;SDS011;67434;50.956;6.918;2023-03-05T08:23:14;6.97;;;1.27;;
49472;SDS011;67434;50.956;6.918;2023-03-05T08:25:40;2.22;;;1.00;;
49472;SDS011;67434;50.956;6.918;2023-03-05T08:28:05;6.35;;;1.75;;
49472;SDS011;67434;50.956;6.918;2023-03-05T08:30:31;5.63;;;1.50;;
49472;SDS011;67434;50.956;6.918;2023-03-05T08:32:57;5.30;;;1.58;;
49472;SDS011;67434;50.956;6.918;2023-03-05T08:35:22;5.05;;;1.67;;
49472;SDS011;67434;50.956;6.918;2023-03-05T08:37:47;5.10;;;1.70;;
49472;SDS011;67434;50.956;6.918;2023-03-05T08:40:13;6.72;;;1.63;;
49472;SDS011;67434;50.956;6.918;2023-03-05T08:42:39;6.82;;;2.53;;
49472;SDS011;67434;50.956;6.918;2023-03-05T08:45:04;5.82;;;1.67;;
49472;SDS011;67434;50.956;6.918;2023-03-05T08:47:30;8.77;;;1.58;;
49472;SDS011;67434;50.956;6.918;2023-03-05T08:49:56;6.25;;;1.95;;
49472;SDS011;67434;50.956;6.918;2023-03-05T08:52:22;5.50;;;2.15;;
49472;SDS011;67434;50.956;6.918;2023-03-05T08:54:48;7.25;;;2.47;;
49472;SDS011;67434;50.956;6.918;2023-03-05T08:57:14;6.88;;;2.63;;
49472;SDS011;67434;50.956;6.918;2023-03-05T08:59:39;12.27;;;2.58;;
49472;SDS011;67434;50.956;6.918;2023-03-05T09:02:05;5.88;;;1.88;;
49472;SDS011;67434;50.956;6.918;2023-03-05T09:04:31;11.15;;;2.45;;
49472;SDS011;67434;50.956;6.918;2023-03-05T09:06:56;7.30;;;2.00;;
49472;SDS011;67434;50.956;6.918;2023-03-05T09:09:21;6.45;;;2.08;;
49472;SDS011;67434;50.956;6.918;2023-03-05T09:11:47;7.68;;;2.22;;
49472;SDS011;67434;50.956;6.918;2023-03-05T09:14:14;10.13;;;2.28;;
49472;SDS011;67434;50.956;6.918;2023-03-05T09:16:39;9.45;;;2.70;;
49472;SDS011;67434;50.956;6.918;2023-03-05T09:19:05;10.10;;;2.63;;
49472;SDS011;67434;50.956;6.918;2023-03-05T09:21:34;8.35;;;2.13;;
49472;SDS011;67434;50.956;6.918;2023-03-05T09:24:00;3.95;;;2.38;;
49472;SDS011;67434;50.956;6.918;2023-03-05T09:26:26;3.50;;;2.22;;
49472;SDS011;67434;50.956;6.918;2023-03-05T09:28:51;8.93;;;2.72;;
49472;SDS011;67434;50.956;6.918;2023-03-05T09:31:20;5.55;;;1.83;;
49472;SDS011;67434;50.956;6.918;2023-03-05T09:33:46;13.38;;;2.47;;
49472;SDS011;67434;50.956;6.918;2023-03-05T09:36:19;3.80;;;1.88;;
49472;SDS011;67434;50.956;6.918;2023-03-05T09:49:19;10.65;;;2.53;;
49472;SDS011;67434;50.956;6.918;2023-03-05T09:52:13;9.18;;;3.15;;
49472;SDS011;67434;50.956;6.918;2023-03-05T09:54:45;12.10;;;3.72;;
49472;SDS011;67434;50.956;6.918;2023-03-05T09:57:21;6.43;;;3.72;;
49472;SDS011;67434;50.956;6.918;2023-03-05T10:00:04;9.70;;;3.25;;
49472;SDS011;67434;50.956;6.918;2023-03-05T10:02:34;6.90;;;3.20;;
49472;SDS011;67434;50.956;6.918;2023-03-05T10:05:09;6.03;;;3.10;;
49472;SDS011;67434;50.956;6.918;2023-03-05T10:07:42;13.35;;;3.10;;
49472;SDS011;67434;50.956;6.918;2023-03-05T10:10:19;8.02;;;2.92;;
49472;SDS011;67434;50.956;6.918;2023-03-05T10:12:50;6.40;;;3.55;;
49472;SDS011;67434;50.956;6.918;2023-03-05T10:15:25;6.38;;;3.83;;
49472;SDS011;67434;50.956;6.918;2023-03-05T10:18:25;5.57;;;3.00;;
49472;SDS011;67434;50.956;6.918;2023-03-05T10:20:54;5.60;;;3.90;;
49472;SDS011;67434;50.956;6.918;2023-03-05T10:23:44;7.70;;;3.88;;
49472;SDS011;67434;50.956;6.918;2023-03-05T10:31:36;7.95;;;3.90;;
49472;SDS011;67434;50.956;6.918;2023-03-05T10:34:32;9.27;;;3.63;;
49472;SDS011;67434;50.956;6.918;2023-03-05T10:45:33;12.35;;;6.85;;
49472;SDS011;67434;50.956;6.918;2023-03-05T10:50:37;14.63;;;6.90;;
49472;SDS011;67434;50.956;6.918;2023-03-05T10:55:34;15.20;;;7.10;;
49472;SDS011;67434;50.956;6.918;2023-03-05T10:58:01;12.23;;;5.40;;
49472;SDS011;67434;50.956;6.918;2023-03-05T11:00:35;12.73;;;5.38;;
49472;SDS011;67434;50.956;6.918;2023-03-05T11:03:01;12.23;;;6.38;;
49472;SDS011;67434;50.956;6.918;2023-03-05T11:05:33;11.05;;;7.03;;
49472;SDS011;67434;50.956;6.918;2023-03-05T11:08:32;11.35;;;6.28;;
49472;SDS011;67434;50.956;6.918;2023-03-05T11:14:04;14.70;;;6.63;;
49472;SDS011;67434;50.956;6.918;2023-03-05T11:16:32;13.95;;;6.20;;
49472;SDS011;67434;50.956;6.918;2023-03-05T11:21:38;12.05;;;5.30;;
49472;SDS011;67434;50.956;6.918;2023-03-05T11:24:04;6.85;;;4.80;;
49472;SDS011;67434;50.956;6.918;2023-03-05T11:26:44;11.32;;;5.30;;
49472;SDS011;67434;50.956;6.918;2023-03-05T11:29:15;9.00;;;4.82;;
49472;SDS011;67434;50.956;6.918;2023-03-05T11:31:42;8.57;;;5.57;;
49472;SDS011;67434;50.956;6.918;2023-03-05T11:34:20;8.10;;;5.25;;
49472;SDS011;67434;50.956;6.918;2023-03-05T11:39:18;6.00;;;4.43;;
49472;SDS011;67434;50.956;6.918;2023-03-05T11:41:53;8.38;;;4.80;;
49472;SDS011;67434;50.956;6.918;2023-03-05T11:44:24;7.70;;;4.60;;
49472;SDS011;67434;50.956;6.918;2023-03-05T11:46:58;7.07;;;4.60;;
49472;SDS011;67434;50.956;6.918;2023-03-05T11:49:26;11.95;;;5.10;;
49472;SDS011;67434;50.956;6.918;2023-03-05T11:54:35;9.10;;;5.88;;
49472;SDS011;67434;50.956;6.918;2023-03-05T11:57:17;9.98;;;6.30;;
49472;SDS011;67434;50.956;6.918;2023-03-05T11:59:45;10.27;;;5.82;;
49472;SDS011;67434;50.956;6.918;2023-03-05T12:02:14;11.25;;;5.63;;
49472;SDS011;67434;50.956;6.918;2023-03-05T12:04:42;9.90;;;5.93;;
49472;SDS011;67434;50.956;6.918;2023-03-05T12:07:08;11.35;;;5.95;;
49472;SDS011;67434;50.956;6.918;2023-03-05T12:09:40;11.95;;;5.28;;
49472;SDS011;67434;50.956;6.918;2023-03-05T12:23:16;5.97;;;4.32;;
49472;SDS011;67434;50.956;6.918;2023-03-05T12:28:14;7.07;;;5.63;;
49472;SDS011;67434;50.956;6.918;2023-03-05T12:31:02;6.47;;;4.32;;
49472;SDS011;67434;50.956;6.918;2023-03-05T12:33:34;8.55;;;4.65;;
49472;SDS011;67434;50.956;6.918;2023-03-05T12:38:53;4.47;;;3.67;;
49472;SDS011;67434;50.956;6.918;2023-03-05T12:46:45;6.45;;;4.00;;
49472;SDS011;67434;50.956;6.918;2023-03-05T12:49:37;5.78;;;3.85;;
49472;SDS011;67434;50.956;6.918;2023-03-05T12:52:03;9.38;;;4.30;;
49472;SDS011;67434;50.956;6.918;2023-03-05T12:54:37;7.10;;;3.80;;
49472;SDS011;67434;50.956;6.918;2023-03-05T13:02:42;6.85;;;3.75;;
49472;SDS011;67434;50.956;6.918;2023-03-05T13:05:16;6.18;;;3.70;;
49472;SDS011;67434;50.956;6.918;2023-03-05T13:07:46;7.18;;;3.65;;
49472;SDS011;67434;50.956;6.918;2023-03-05T13:10:23;6.85;;;3.58;;
49472;SDS011;67434;50.956;6.918;2023-03-05T13:12:53;7.30;;;3.63;;
49472;SDS011;67434;50.956;6.918;2023-03-05T13:15:22;4.65;;;3.20;;
49472;SDS011;67434;50.956;6.918;2023-03-05T13:28:40;5.72;;;3.20;;
49472;SDS011;67434;50.956;6.918;2023-03-05T13:31:16;5.30;;;3.53;;
49472;SDS011;67434;50.956;6.918;2023-03-05T13:34:18;7.63;;;4.22;;
49472;SDS011;67434;50.956;6.918;2023-03-05T13:36:58;10.20;;;5.25;;
49472;SDS011;67434;50.956;6.918;2023-03-05T13:39:26;9.32;;;5.40;;
49472;SDS011;67434;50.956;6.918;2023-03-05T13:41:56;9.82;;;5.03;;
49472;SDS011;67434;50.956;6.918;2023-03-05T13:44:23;8.18;;;4.93;;
49472;SDS011;67434;50.956;6.918;2023-03-05T13:46:49;9.27;;;5.18;;
49472;SDS011;67434;50.956;6.918;2023-03-05T13:49:16;10.30;;;5.50;;
49472;SDS011;67434;50.956;6.918;2023-03-05T13:51:47;8.85;;;4.63;;
49472;SDS011;67434;50.956;6.918;2023-03-05T13:54:20;8.40;;;5.13;;
49472;SDS011;67434;50.956;6.918;2023-03-05T13:56:48;9.63;;;5.28;;
49472;SDS011;67434;50.956;6.918;2023-03-05T13:59:27;6.68;;;4.40;;
49472;SDS011;67434;50.956;6.918;2023-03-05T14:01:59;8.02;;;4.93;;
49472;SDS011;67434;50.956;6.918;2023-03-05T14:04:44;8.63;;;5.20;;
49472;SDS011;67434;50.956;6.918;2023-03-05T14:07:21;10.52;;;5.13;;
49472;SDS011;67434;50.956;6.918;2023-03-05T14:09:53;8.70;;;5.00;;
49472;SDS011;67434;50.956;6.918;2023-03-05T14:14:55;10.73;;;5.43;;
49472;SDS011;67434;50.956;6.918;2023-03-05T14:17:41;7.97;;;5.70;;
49472;SDS011;67434;50.956;6.918;2023-03-05T14:22:54;9.02;;;4.28;;
49472;SDS011;67434;50.956;6.918;2023-03-05T14:25:25;7.47;;;4.97;;
49472;SDS011;67434;50.956;6.918;2023-03-05T14:30:44;9.23;;;4.22;;
49472;SDS011;67434;50.956;6.918;2023-03-05T14:33:11;8.60;;;4.60;;
49472;SDS011;67434;50.956;6.918;2023-03-05T14:35:37;8.63;;;4.40;;
49472;SDS011;67434;50.956;6.918;2023-03-05T14:38:03;8.43;;;4.40;;
49472;SDS011;67434;50.956;6.918;2023-03-05T14:40:31;6.32;;;4.18;;
49472;SDS011;67434;50.956;6.918;2023-03-05T14:42:59;6.57;;;4.28;;
49472;SDS011;67434;50.956;6.918;2023-03-05T14:45:35;11.82;;;5.70;;
49472;SDS011;67434;50.956;6.918;2023-03-05T14:48:03;6.28;;;3.90;;
49472;SDS011;67434;50.956;6.918;2023-03-05T14:50:34;6.63;;;3.78;;
49472;SDS011;67434;50.956;6.918;2023-03-05T14:53:06;9.68;;;4.50;;
49472;SDS011;67434;50.956;6.918;2023-03-05T14:55:33;8.95;;;4.05;;
49472;SDS011;67434;50.956;6.918;2023-03-05T14:58:03;6.07;;;4.65;;
49472;SDS011;67434;50.956;6.918;2023-03-05T15:00:35;6.13;;;3.63;;
49472;SDS011;67434;50.956;6.918;2023-03-05T15:03:01;7.93;;;5.70;;
49472;SDS011;67434;50.956;6.918;2023-03-05T15:05:26;7.55;;;4.10;;
49472;SDS011;67434;50.956;6.918;2023-03-05T15:07:52;7.07;;;4.35;;
49472;SDS011;67434;50.956;6.918;2023-03-05T15:10:19;6.05;;;4.30;;
49472;SDS011;67434;50.956;6.918;2023-03-05T15:12:47;8.95;;;4.38;;
49472;SDS011;67434;50.956;6.918;2023-03-05T15:15:14;6.47;;;4.05;;
49472;SDS011;67434;50.956;6.918;2023-03-05T15:17:42;8.60;;;4.45;;
49472;SDS011;67434;50.956;6.918;2023-03-05T15:20:16;6.55;;;4.47;;
49472;SDS011;67434;50.956;6.918;2023-03-05T15:22:44;7.53;;;3.88;;
49472;SDS011;67434;50.956;6.918;2023-03-05T15:25:10;11.32;;;4.75;;
49472;SDS011;67434;50.956;6.918;2023-03-05T15:27:35;14.43;;;5.43;;
49472;SDS011;67434;50.956;6.918;2023-03-05T15:30:02;9.68;;;5.40;;
49472;SDS011;67434;50.956;6.918;2023-03-05T15:32:29;7.18;;;5.05;;
49472;SDS011;67434;50.956;6.918;2023-03-05T15:34:55;10.20;;;5.85;;
49472;SDS011;67434;50.956;6.918;2023-03-05T15:37:21;10.52;;;5.80;;
49472;SDS011;67434;50.956;6.918;2023-03-05T15:39:47;11.43;;;6.70;;
49472;SDS011;67434;50.956;6.918;2023-03-05T15:42:12;7.60;;;5.57;;
49472;SDS011;67434;50.956;6.918;2023-03-05T15:44:39;9.15;;;5.25;;
49472;SDS011;67434;50.956;6.918;2023-03-05T15:47:05;8.40;;;5.32;;
49472;SDS011;67434;50.956;6.918;2023-03-05T15:49:31;10.05;;;5.70;;
49472;SDS011;67434;50.956;6.918;2023-03-05T15:51:56;11.63;;;6.40;;
49472;SDS011;67434;50.956;6.918;2023-03-05T15:54:22;14.02;;;6.95;;
49472;SDS011;67434;50.956;6.918;2023-03-05T15:56:48;12.10;;;6.78;;
49472;SDS011;67434;50.956;6.918;2023-03-05T15:59:16;9.90;;;5.22;;
49472;SDS011;67434;50.956;6.918;2023-03-05T16:01:44;10.50;;;5.53;;
49472;SDS011;67434;50.956;6.918;2023-03-05T16:04:13;10.32;;;5.18;;
49472;SDS011;67434;50.956;6.918;2023-03-05T16:06:40;8.88;;;5.00;;
49472;SDS011;67434;50.956;6.918;2023-03-05T16:09:07;7.47;;;5.10;;
49472;SDS011;67434;50.956;6.918;2023-03-05T16:11:34;10.38;;;5.03;;
49472;SDS011;67434;50.956;6.918;2023-03-05T16:14:02;10.48;;;5.30;;
49472;SDS011;67434;50.956;6.918;2023-03-05T16:16:31;10.13;;;5.88;;
49472;SDS011;67434;50.956;6.918;2023-03-05T16:18:59;8.88;;;5.60;;
49472;SDS011;67434;50.956;6.918;2023-03-05T16:21:25;13.82;;;6.05;;
49472;SDS011;67434;50.956;6.918;2023-03-05T16:23:51;9.32;;;5.68;;
49472;SDS011;67434;50.956;6.918;2023-03-05T16:26:16;16.08;;;7.45;;